sensor_id;sensor_type;location;lat;lon;timestamp;pressure;altitude;pressure_sealevel;temperature;humidity
9460;BME280;4768;42.664;23.240;2023-04-07T00:00:22;39329.69;;;1.22;100.00
9460;BME280;4768;42.664;23.240;2023-04-07T00:02:49;39329.44;;;1.22;100.00
9460;BME280;4768;42.664;23.240;2023-04-07T00:05:16;38307.28;;;1.24;100.00
9460;BME280;4768;42.664;23.240;2023-04-07T00:07:44;40697.97;;;1.28;100.00
9460;BME280;4768;42.664;23.240;2023-04-07T00:10:12;39328.69;;;1.20;100.00
9460;BME280;4768;42.664;23.240;2023-04-07T00:12:38;38988.28;;;1.22;100.00
9460;BME280;4768;42.664;23.240;2023-04-07T00:15:06;40357.13;;;1.29;100.00
9460;BME280;4768;42.664;23.240;2023-04-07T00:17:33;41036.09;;;1.22;100.00
9460;BME280;4768;42.664;23.240;2023-04-07T00:20:00;37621.03;;;1.16;100.00
9460;BME280;4768;42.664;23.240;2023-04-07T00:22:26;34210.78;;;1.11;100.00
9460;BME280;4768;42.664;23.240;2023-04-07T00:24:55;33191.56;;;1.17;100.00
9460;BME280;4768;42.664;23.240;2023-04-07T00:27:21;34554.88;;;1.19;100.00
9460;BME280;4768;42.664;23.240;2023-04-07T00:29:48;35235.88;;;1.18;100.00
9460;BME280;4768;42.664;23.240;2023-04-07T00:32:15;36942.91;;;1.24;100.00
9460;BME280;4768;42.664;23.240;2023-04-07T00:34:41;39672.72;;;1.26;100.00
9460;BME280;4768;42.664;23.240;2023-04-07T00:37:08;42405.50;;;1.29;100.00
9460;BME280;4768;42.664;23.240;2023-04-07T00:39:35;44456.56;;;1.31;100.00
9460;BME280;4768;42.664;23.240;2023-04-07T00:42:04;43769.59;;;1.25;100.00
9460;BME280;4768;42.664;23.240;2023-04-07T00:44:31;43770.50;;;1.26;100.00
9460;BME280;4768;42.664;23.240;2023-04-07T00:46:58;44786.00;;;1.10;100.00
9460;BME280;4768;42.664;23.240;2023-04-07T00:49:25;44793.22;;;1.22;100.00
9460;BME280;4768;42.664;23.240;2023-04-07T00:51:53;44794.75;;;1.25;100.00
9460;BME280;4768;42.664;23.240;2023-04-07T00:54:20;45481.09;;;1.29;100.00
9460;BME280;4768;42.664;23.240;2023-04-07T00:56:48;43080.34;;;1.14;100.00
9460;BME280;4768;42.664;23.240;2023-04-07T00:59:17;37620.28;;;1.14;100.00
9460;BME280;4768;42.664;23.240;2023-04-07T01:01:47;35576.88;;;1.18;100.00
9460;BME280;4768;42.664;23.240;2023-04-07T01:04:22;33874.19;;;1.20;100.00
9460;BME280;4768;42.664;23.240;2023-04-07T01:06:56;35924.06;;;1.32;100.00
9460;BME280;4768;42.664;23.240;2023-04-07T01:09:29;37969.38;;;1.31;100.00
9460;BME280;4768;42.664;23.240;2023-04-07T01:12:01;40018.19;;;1.34;100.00
9460;BME280;4768;42.664;23.240;2023-04-07T01:14:34;41042.84;;;1.35;100.00
9460;BME280;4768;42.664;23.240;2023-04-07T01:17:06;42407.75;;;1.33;100.00
9460;BME280;4768;42.664;23.240;2023-04-07T01:19:36;42068.44;;;1.37;100.00
9460;BME280;4768;42.664;23.240;2023-04-07T01:22:10;44804.38;;;1.41;100.00
9460;BME280;4768;42.664;23.240;2023-04-07T01:25:02;46858.97;;;1.45;100.00
9460;BME280;4768;42.664;23.240;2023-04-07T01:27:37;50622.97;;;1.43;100.00
9460;BME280;4768;42.664;23.240;2023-04-07T01:30:11;49938.44;;;1.44;100.00
9460;BME280;4768;42.664;23.240;2023-04-07T01:32:39;51311.47;;;1.48;100.00
9460;BME280;4768;42.664;23.240;2023-04-07T01:35:09;54741.47;;;1.52;100.00
9460;BME280;4768;42.664;23.240;2023-04-07T01:37:38;57484.75;;;1.50;100.00
9460;BME280;4768;42.664;23.240;2023-04-07T01:40:07;56792.84;;;1.43;100.00
9460;BME280;4768;42.664;23.240;2023-04-07T01:42:34;57141.97;;;1.51;100.00
9460;BME280;4768;42.664;23.240;2023-04-07T01:45:06;58168.75;;;1.47;100.00
9460;BME280;4768;42.664;23.240;2023-04-07T01:47:35;61948.28;;;1.49;100.00
9460;BME280;4768;42.664;23.240;2023-04-07T01:50:03;63324.03;;;1.50;100.00
9460;BME280;4768;42.664;23.240;2023-04-07T01:52:32;64007.06;;;1.45;100.00
9460;BME280;4768;42.664;23.240;2023-04-07T01:55:00;69859.63;;;1.48;100.00
9460;BME280;4768;42.664;23.240;2023-04-07T01:57:27;77441.44;;;1.44;100.00
9460;BME280;4768;42.664;23.240;2023-04-07T01:59:54;81581.72;;;1.41;100.00
9460;BME280;4768;42.664;23.240;2023-04-07T02:02:21;80190.84;;;1.34;100.00
9460;BME280;4768;42.664;23.240;2023-04-07T02:04:54;83302.56;;;1.35;100.00
9460;BME280;4768;42.664;23.240;2023-04-07T02:07:28;96487.75;;;1.51;100.00
9460;BME280;4768;42.664;23.240;2023-04-07T02:09:58;106919.31;;;1.52;100.00
9460;BME280;4768;42.664;23.240;2023-04-07T02:12:27;111449.25;;;1.53;100.00
9460;BME280;4768;42.664;23.240;2023-04-07T02:14:56;118787.09;;;1.58;100.00
9460;BME280;4768;42.664;23.240;2023-04-07T02:17:24;120887.72;;;1.60;100.00
9460;BME280;4768;42.664;23.240;2023-04-07T02:19:54;114919.56;;;1.43;100.00
9460;BME280;4768;42.664;23.240;2023-04-07T02:22:23;107961.50;;;1.51;100.00
9460;BME280;4768;42.664;23.240;2023-04-07T02:24:51;107618.97;;;1.54;100.00
9460;BME280;4768;42.664;23.240;2023-04-07T02:27:18;115646.75;;;1.59;100.00
9460;BME280;4768;42.664;23.240;2023-04-07T02:29:44;124044.13;;;1.64;100.00
9460;BME280;4768;42.664;23.240;2023-04-07T02:32:11;122991.63;;;1.63;100.00
9460;BME280;4768;42.664;23.240;2023-04-07T02:34:38;121237.31;;;1.60;100.00
9460;BME280;4768;42.664;23.240;2023-04-07T02:37:06;121591.69;;;1.62;100.00
9460;BME280;4768;42.664;23.240;2023-04-07T02:39:33;116001.19;;;1.62;100.00
9460;BME280;4768;42.664;23.240;2023-04-07T02:41:59;120547.41;;;1.65;100.00
9460;BME280;4768;42.664;23.240;2023-04-07T02:44:26;126500.41;;;1.67;100.00
9460;BME280;4768;42.664;23.240;2023-04-07T02:46:53;136682.50;;;1.73;100.00
9460;BME280;4768;42.664;23.240;2023-04-07T02:49:20;151121.88;;;1.77;100.00
9460;BME280;4768;42.664;23.240;2023-04-07T02:51:47;163151.31;;;1.84;100.00
9460;BME280;4768;42.664;23.240;2023-04-07T02:54:15;167399.25;;;1.84;100.00
9460;BME280;4768;42.664;23.240;2023-04-07T02:56:42;163151.31;;;1.84;100.00
9460;BME280;4768;42.664;23.240;2023-04-07T02:59:08;166432.28;;;1.82;100.00
9460;BME280;4768;42.664;23.240;2023-04-07T03:01:35;156771.78;;;1.78;100.00
9460;BME280;4768;42.664;23.240;2023-04-07T03:04:03;154299.91;;;1.78;100.00
9460;BME280;4768;42.664;23.240;2023-04-07T03:06:30;157834.19;;;1.79;100.00
9460;BME280;4768;42.664;23.240;2023-04-07T03:08:57;161020.88;;;1.81;100.00
9460;BME280;4768;42.664;23.240;2023-04-07T03:11:26;165495.09;;;1.85;100.00
9460;BME280;4768;42.664;23.240;2023-04-07T03:13:52;167415.19;;;1.90;100.00
9460;BME280;4768;42.664;23.240;2023-04-07T03:16:19;167415.19;;;1.90;100.00
9460;BME280;4768;42.664;23.240;2023-04-07T03:18:46;167427.09;;;1.94;100.00
9460;BME280;4768;42.664;23.240;2023-04-07T03:21:13;167436.38;;;1.98;100.00
9460;BME280;4768;42.664;23.240;2023-04-07T03:23:39;167440.34;;;1.99;100.00
9460;BME280;4768;42.664;23.240;2023-04-07T03:26:06;167441.63;;;2.00;100.00
9460;BME280;4768;42.664;23.240;2023-04-07T03:28:34;167425.75;;;1.94;100.00
9460;BME280;4768;42.664;23.240;2023-04-07T03:31:01;167411.16;;;1.89;100.00
9460;BME280;4768;42.664;23.240;2023-04-07T03:33:28;167399.25;;;1.84;100.00
9460;BME280;4768;42.664;23.240;2023-04-07T03:35:54;167404.59;;;1.86;100.00
9460;BME280;4768;42.664;23.240;2023-04-07T03:38:21;167382.06;;;1.78;100.00
9460;BME280;4768;42.664;23.240;2023-04-07T03:40:48;167335.69;;;1.60;100.00
9460;BME280;4768;42.664;23.240;2023-04-07T03:43:15;167348.97;;;1.65;100.00
9460;BME280;4768;42.664;23.240;2023-04-07T03:45:43;161307.09;;;1.54;100.00
9460;BME280;4768;42.664;23.240;2023-04-07T03:48:09;145409.38;;;1.44;100.00
9460;BME280;4768;42.664;23.240;2023-04-07T03:50:37;140840.44;;;1.46;100.00
9460;BME280;4768;42.664;23.240;2023-04-07T03:53:04;135915.47;;;1.42;100.00
9460;BME280;4768;42.664;23.240;2023-04-07T03:55:31;131716.38;;;1.47;100.00
9460;BME280;4768;42.664;23.240;2023-04-07T03:57:58;133831.00;;;1.52;100.00
9460;BME280;4768;42.664;23.240;2023-04-07T04:00:25;137702.00;;;1.57;100.00
9460;BME280;4768;42.664;23.240;2023-04-07T04:02:53;135238.84;;;1.54;100.00
9460;BME280;4768;42.664;23.240;2023-04-07T04:05:20;140171.41;;;1.61;100.00
9460;BME280;4768;42.664;23.240;2023-04-07T04:07:47;139468.47;;;1.61;100.00
9460;BME280;4768;42.664;23.240;2023-04-07T04:10:15;134902.56;;;1.61;100.00
9460;BME280;4768;42.664;23.240;2023-04-07T04:12:42;129643.56;;;1.62;100.00
9460;BME280;4768;42.664;23.240;2023-04-07T04:15:09;126140.50;;;1.62;100.00
9460;BME280;4768;42.664;23.240;2023-04-07T04:17:36;123696.13;;;1.65;100.00
9460;BME280;4768;42.664;23.240;2023-04-07T04:20:05;121249.47;;;1.66;100.00
9460;BME280;4768;42.664;23.240;2023-04-07T04:22:32;125109.56;;;1.72;100.00
9460;BME280;4768;42.664;23.240;2023-04-07T04:24:59;124760.47;;;1.73;100.00
9460;BME280;4768;42.664;23.240;2023-04-07T04:27:27;124361.41;;;1.47;100.00
9460;BME280;4768;42.664;23.240;2023-04-07T04:29:53;132128.56;;;1.77;100.00
9460;BME280;4768;42.664;23.240;2023-04-07T04:32:20;138110.31;;;1.83;100.00
9460;BME280;4768;42.664;23.240;2023-04-07T04:34:47;140933.94;;;1.88;100.00
9460;BME280;4768;42.664;23.240;2023-04-07T04:37:15;145143.75;;;1.82;100.00
9460;BME280;4768;42.664;23.240;2023-04-07T04:39:42;147280.25;;;1.92;100.00
9460;BME280;4768;42.664;23.240;2023-04-07T04:42:08;160360.38;;;1.99;100.00
9460;BME280;4768;42.664;23.240;2023-04-07T04:44:35;167457.53;;;2.06;100.00
9460;BME280;4768;42.664;23.240;2023-04-07T04:47:02;167433.69;;;1.97;100.00
9460;BME280;4768;42.664;23.240;2023-04-07T04:49:29;167484.03;;;2.16;100.00
9460;BME280;4768;42.664;23.240;2023-04-07T04:51:55;167489.31;;;2.18;100.00
9460;BME280;4768;42.664;23.240;2023-04-07T04:54:24;167498.63;;;2.21;100.00
9460;BME280;4768;42.664;23.240;2023-04-07T04:56:50;167503.91;;;2.23;100.00
9460;BME280;4768;42.664;23.240;2023-04-07T04:59:17;167531.72;;;2.34;100.00
9460;BME280;4768;42.664;23.240;2023-04-07T05:01:44;167560.84;;;2.44;100.00
9460;BME280;4768;42.664;23.240;2023-04-07T05:04:11;167596.66;;;2.58;100.00
9460;BME280;4768;42.664;23.240;2023-04-07T05:06:37;167613.88;;;2.64;100.00
9460;BME280;4768;42.664;23.240;2023-04-07T05:09:04;167609.91;;;2.63;100.00
9460;BME280;4768;42.664;23.240;2023-04-07T05:11:32;167605.91;;;2.61;100.00
9460;BME280;4768;42.664;23.240;2023-04-07T05:13:59;167612.56;;;2.64;100.00
9460;BME280;4768;42.664;23.240;2023-04-07T05:16:25;167635.06;;;2.72;100.00
9460;BME280;4768;42.664;23.240;2023-04-07T05:18:52;167643.00;;;2.75;100.00
9460;BME280;4768;42.664;23.240;2023-04-07T05:21:19;167661.56;;;2.82;100.00
9460;BME280;4768;42.664;23.240;2023-04-07T05:23:46;167665.56;;;2.84;100.00
9460;BME280;4768;42.664;23.240;2023-04-07T05:26:13;167662.88;;;2.83;100.00
9460;BME280;4768;42.664;23.240;2023-04-07T05:28:41;167658.91;;;2.81;100.00
9460;BME280;4768;42.664;23.240;2023-04-07T05:31:08;167641.69;;;2.75;100.00
9460;BME280;4768;42.664;23.240;2023-04-07T05:33:34;167686.75;;;2.91;100.00
9460;BME280;4768;42.664;23.240;2023-04-07T05:36:01;167693.38;;;2.94;100.00
9460;BME280;4768;42.664;23.240;2023-04-07T05:38:28;167723.88;;;3.05;100.00
9460;BME280;4768;42.664;23.240;2023-04-07T05:40:55;167706.63;;;2.99;100.00
9460;BME280;4768;42.664;23.240;2023-04-07T05:43:21;167737.13;;;3.10;100.00
9460;BME280;4768;42.664;23.240;2023-04-07T05:45:49;167722.53;;;3.05;100.00
9460;BME280;4768;42.664;23.240;2023-04-07T05:48:16;167762.34;;;3.20;100.00
9460;BME280;4768;42.664;23.240;2023-04-07T05:50:43;167804.72;;;3.35;100.00
9460;BME280;4768;42.664;23.240;2023-04-07T05:53:10;167757.00;;;3.18;100.00
9460;BME280;4768;42.664;23.240;2023-04-07T05:55:36;167734.44;;;3.09;100.00
9460;BME280;4768;42.664;23.240;2023-04-07T05:58:03;167729.16;;;3.07;100.00
9460;BME280;4768;42.664;23.240;2023-04-07T06:00:30;167755.69;;;3.17;100.00
9460;BME280;4768;42.664;23.240;2023-04-07T06:02:58;167886.94;;;3.66;100.00
9460;BME280;4768;42.664;23.240;2023-04-07T06:05:26;167841.88;;;3.49;100.00
9460;BME280;4768;42.664;23.240;2023-04-07T06:07:52;167975.81;;;3.99;100.00
9460;BME280;4768;42.664;23.240;2023-04-07T06:10:19;167998.34;;;4.08;100.00
9460;BME280;4768;42.664;23.240;2023-04-07T06:12:46;167961.22;;;3.94;100.00
9460;BME280;4768;42.664;23.240;2023-04-07T06:15:13;167995.72;;;4.07;100.00
9460;BME280;4768;42.664;23.240;2023-04-07T06:17:39;168003.69;;;4.10;100.00
9460;BME280;4768;42.664;23.240;2023-04-07T06:20:10;167937.34;;;3.85;100.00
9460;BME280;4768;42.664;23.240;2023-04-07T06:22:37;167910.81;;;3.75;100.00
9460;BME280;4768;42.664;23.240;2023-04-07T06:25:04;167885.63;;;3.66;100.00
9460;BME280;4768;42.664;23.240;2023-04-07T06:27:31;167981.09;;;4.01;100.00
9460;BME280;4768;42.664;23.240;2023-04-07T06:29:58;167889.59;;;3.67;100.00
9460;BME280;4768;42.664;23.240;2023-04-07T06:32:25;168060.69;;;4.31;100.00
9460;BME280;4768;42.664;23.240;2023-04-07T06:34:52;167983.78;;;4.02;100.00
9460;BME280;4768;42.664;23.240;2023-04-07T06:37:21;167916.09;;;3.77;100.00
9460;BME280;4768;42.664;23.240;2023-04-07T06:39:49;167937.34;;;3.85;100.00
9460;BME280;4768;42.664;23.240;2023-04-07T06:42:15;167961.22;;;3.94;100.00
9460;BME280;4768;42.664;23.240;2023-04-07T06:44:42;168051.44;;;4.28;100.00
9460;BME280;4768;42.664;23.240;2023-04-07T06:47:09;168107.16;;;4.48;100.00
9460;BME280;4768;42.664;23.240;2023-04-07T06:49:35;168225.25;;;4.92;100.00
9460;BME280;4768;42.664;23.240;2023-04-07T06:52:03;168113.81;;;4.51;100.00
9460;BME280;4768;42.664;23.240;2023-04-07T06:54:31;168189.44;;;4.79;100.00
9460;BME280;4768;42.664;23.240;2023-04-07T06:56:58;168346.03;;;5.37;100.00
9460;BME280;4768;42.664;23.240;2023-04-07T06:59:25;168380.56;;;5.50;100.00
9460;BME280;4768;42.664;23.240;2023-04-07T07:01:52;168255.75;;;5.04;100.00
9460;BME280;4768;42.664;23.240;2023-04-07T07:04:19;168358.00;;;5.42;100.00
9460;BME280;4768;42.664;23.240;2023-04-07T07:06:46;168351.38;;;5.39;100.00
9460;BME280;4768;42.664;23.240;2023-04-07T07:09:12;168267.75;;;5.08;100.00
9460;BME280;4768;42.664;23.240;2023-04-07T07:11:41;168304.91;;;5.22;100.00
9460;BME280;4768;42.664;23.240;2023-04-07T07:14:08;168227.88;;;4.93;100.00
9460;BME280;4768;42.664;23.240;2023-04-07T07:16:35;168197.41;;;4.82;100.00
9460;BME280;4768;42.664;23.240;2023-04-07T07:19:02;168188.06;;;4.78;100.00
9460;BME280;4768;42.664;23.240;2023-04-07T07:21:28;168239.84;;;4.98;100.00
9460;BME280;4768;42.664;23.240;2023-04-07T07:23:55;168549.31;;;6.13;100.00
9460;BME280;4768;42.664;23.240;2023-04-07T07:26:22;168550.66;;;6.14;100.00
9460;BME280;4768;42.664;23.240;2023-04-07T07:28:50;168356.69;;;5.41;100.00
9460;BME280;4768;42.664;23.240;2023-04-07T07:31:17;168291.66;;;5.17;100.00
9460;BME280;4768;42.664;23.240;2023-04-07T07:33:43;168251.78;;;5.02;100.00
9460;BME280;4768;42.664;23.240;2023-04-07T07:36:12;168226.56;;;4.93;100.00
9460;BME280;4768;42.664;23.240;2023-04-07T07:38:39;168218.59;;;4.90;100.00
9460;BME280;4768;42.664;23.240;2023-04-07T07:41:06;168229.25;;;4.94;100.00
9460;BME280;4768;42.664;23.240;2023-04-07T07:43:33;168258.44;;;5.05;100.00
9460;BME280;4768;42.664;23.240;2023-04-07T07:46:02;168306.22;;;5.23;100.00
9460;BME280;4768;42.664;23.240;2023-04-07T07:48:29;168344.72;;;5.37;100.00
9460;BME280;4768;42.664;23.240;2023-04-07T07:50:56;168283.69;;;5.14;100.00
9460;BME280;4768;42.664;23.240;2023-04-07T07:53:23;168295.63;;;5.19;100.00
9460;BME280;4768;42.664;23.240;2023-04-07T07:55:49;168270.38;;;5.09;100.00
9460;BME280;4768;42.664;23.240;2023-04-07T07:58:16;168316.84;;;5.27;100.00
9460;BME280;4768;42.664;23.240;2023-04-07T08:00:43;168267.75;;;5.08;100.00
9460;BME280;4768;42.664;23.240;2023-04-07T08:03:11;168401.81;;;5.58;100.00
9460;BME280;4768;42.664;23.240;2023-04-07T08:05:38;168486.88;;;5.90;100.00
9460;BME280;4768;42.664;23.240;2023-04-07T08:08:05;168455.00;;;5.78;100.00
9460;BME280;4768;42.664;23.240;2023-04-07T08:10:32;168368.63;;;5.46;100.00
9460;BME280;4768;42.664;23.240;2023-04-07T08:12:59;168435.03;;;5.71;100.00
9460;BME280;4768;42.664;23.240;2023-04-07T08:15:25;168404.47;;;5.59;100.00
9460;BME280;4768;42.664;23.240;2023-04-07T08:17:52;168472.25;;;5.84;100.00
9460;BME280;4768;42.664;23.240;2023-04-07T08:20:20;168567.91;;;6.20;100.00
9460;BME280;4768;42.664;23.240;2023-04-07T08:22:47;168565.28;;;6.19;100.00
9460;BME280;4768;42.664;23.240;2023-04-07T08:25:14;168524.06;;;6.04;100.00
9460;BME280;4768;42.664;23.240;2023-04-07T08:27:40;168521.44;;;6.03;100.00
9460;BME280;4768;42.664;23.240;2023-04-07T08:30:07;168567.91;;;6.20;100.00
9460;BME280;4768;42.664;23.240;2023-04-07T08:32:35;168559.91;;;6.17;100.00
9460;BME280;4768;42.664;23.240;2023-04-07T08:35:02;168554.63;;;6.15;100.00
9460;BME280;4768;42.664;23.240;2023-04-07T08:37:31;168528.03;;;6.05;100.00
9460;BME280;4768;42.664;23.240;2023-04-07T08:39:58;168646.28;;;6.49;100.00
9460;BME280;4768;42.664;23.240;2023-04-07T08:42:27;168796.50;;;7.05;100.00
9460;BME280;4768;42.664;23.240;2023-04-07T08:44:55;168949.41;;;7.62;100.00
9460;BME280;4768;42.664;23.240;2023-04-07T08:47:24;168872.25;;;7.33;100.00
9460;BME280;4768;42.664;23.240;2023-04-07T08:49:53;168740.66;;;6.84;100.00
9460;BME280;4768;42.664;23.240;2023-04-07T08:52:29;168716.75;;;6.75;100.00
9460;BME280;4768;42.664;23.240;2023-04-07T08:55:00;168878.91;;;7.36;100.00
9460;BME280;4768;42.664;23.240;2023-04-07T08:57:29;168815.13;;;7.12;96.22
9460;BME280;4768;42.664;23.240;2023-04-07T08:59:58;168992.00;;;7.78;98.97
9460;BME280;4768;42.664;23.240;2023-04-07T09:02:28;169001.28;;;7.81;95.13
9460;BME280;4768;42.664;23.240;2023-04-07T09:04:56;168656.94;;;6.53;97.45
9460;BME280;4768;42.664;23.240;2023-04-07T09:07:23;168785.88;;;7.01;100.00
9460;BME280;4768;42.664;23.240;2023-04-07T09:09:50;168964.06;;;7.68;100.00
9460;BME280;4768;42.664;23.240;2023-04-07T09:12:18;168948.09;;;7.62;99.18
9460;BME280;4768;42.664;23.240;2023-04-07T09:14:45;168890.91;;;7.40;98.42
9460;BME280;4768;42.664;23.240;2023-04-07T09:17:11;168789.88;;;7.03;100.00
9460;BME280;4768;42.664;23.240;2023-04-07T09:19:38;168800.47;;;7.07;99.96
9460;BME280;4768;42.664;23.240;2023-04-07T09:22:05;168739.34;;;6.84;99.68
9460;BME280;4768;42.664;23.240;2023-04-07T09:24:32;168601.13;;;6.32;100.00
9460;BME280;4768;42.664;23.240;2023-04-07T09:27:09;168726.03;;;6.79;100.00
9460;BME280;4768;42.664;23.240;2023-04-07T09:29:38;168773.94;;;6.97;100.00
9460;BME280;4768;42.664;23.240;2023-04-07T09:32:06;168704.78;;;6.71;100.00
9460;BME280;4768;42.664;23.240;2023-04-07T09:34:34;168631.72;;;6.44;100.00
9460;BME280;4768;42.664;23.240;2023-04-07T09:37:02;168634.34;;;6.45;100.00
9460;BME280;4768;42.664;23.240;2023-04-07T09:39:30;168631.72;;;6.44;100.00
9460;BME280;4768;42.664;23.240;2023-04-07T09:41:56;168687.53;;;6.65;100.00
9460;BME280;4768;42.664;23.240;2023-04-07T09:44:24;168678.19;;;6.61;100.00
9460;BME280;4768;42.664;23.240;2023-04-07T09:46:54;168739.34;;;6.84;100.00
9460;BME280;4768;42.664;23.240;2023-04-07T09:49:22;168753.94;;;6.89;100.00
9460;BME280;4768;42.664;23.240;2023-04-07T09:51:53;168893.56;;;7.41;100.00
9460;BME280;4768;42.664;23.240;2023-04-07T09:54:32;168800.47;;;7.07;100.00
9460;BME280;4768;42.664;23.240;2023-04-07T09:57:01;169006.59;;;7.83;100.00
9460;BME280;4768;42.664;23.240;2023-04-07T09:59:28;168942.75;;;7.60;100.00
9460;BME280;4768;42.664;23.240;2023-04-07T10:01:57;169082.44;;;8.12;100.00
9460;BME280;4768;42.664;23.240;2023-04-07T10:04:23;168872.25;;;7.33;98.53
9460;BME280;4768;42.664;23.240;2023-04-07T10:06:51;168944.13;;;7.60;100.00
9460;BME280;4768;42.664;23.240;2023-04-07T10:09:18;168902.84;;;7.45;100.00
9460;BME280;4768;42.664;23.240;2023-04-07T10:11:45;168835.06;;;7.20;100.00
9460;BME280;4768;42.664;23.240;2023-04-07T10:14:13;168817.78;;;7.13;100.00
9460;BME280;4768;42.664;23.240;2023-04-07T10:16:41;168873.63;;;7.34;100.00
9460;BME280;4768;42.664;23.240;2023-04-07T10:19:10;168910.84;;;7.48;100.00
9460;BME280;4768;42.664;23.240;2023-04-07T10:21:39;168861.66;;;7.29;100.00
9460;BME280;4768;42.664;23.240;2023-04-07T10:24:14;168849.69;;;7.25;99.38
9460;BME280;4768;42.664;23.240;2023-04-07T10:26:49;168889.59;;;7.40;100.00
9460;BME280;4768;42.664;23.240;2023-04-07T10:29:18;168936.09;;;7.57;100.00
9460;BME280;4768;42.664;23.240;2023-04-07T10:31:45;168886.91;;;7.39;100.00
9460;BME280;4768;42.664;23.240;2023-04-07T10:34:14;168804.47;;;7.08;100.00
9460;BME280;4768;42.664;23.240;2023-04-07T10:37:08;168783.22;;;7.00;100.00
9460;BME280;4768;42.664;23.240;2023-04-07T10:39:37;168866.97;;;7.31;100.00
9460;BME280;4768;42.664;23.240;2023-04-07T10:42:04;168869.63;;;7.32;100.00
9460;BME280;4768;42.664;23.240;2023-04-07T10:44:47;168873.63;;;7.34;100.00
9460;BME280;4768;42.664;23.240;2023-04-07T10:47:15;168902.84;;;7.45;100.00
9460;BME280;4768;42.664;23.240;2023-04-07T10:52:46;168510.78;;;5.99;100.00
9460;BME280;4768;42.664;23.240;2023-04-07T10:55:37;168726.03;;;6.79;100.00
9460;BME280;4768;42.664;23.240;2023-04-07T10:58:18;168625.06;;;6.41;100.00
9460;BME280;4768;42.664;23.240;2023-04-07T11:01:16;168728.69;;;6.80;100.00
9460;BME280;4768;42.664;23.240;2023-04-07T11:03:59;168587.81;;;6.27;100.00
9460;BME280;4768;42.664;23.240;2023-04-07T11:06:26;168720.72;;;6.77;100.00
9460;BME280;4768;42.664;23.240;2023-04-07T11:08:54;168615.78;;;6.38;100.00
9460;BME280;4768;42.664;23.240;2023-04-07T11:11:40;168668.91;;;6.58;100.00
9460;BME280;4768;42.664;23.240;2023-04-07T11:14:07;168763.28;;;6.93;100.00
9460;BME280;4768;42.664;23.240;2023-04-07T11:16:36;168760.59;;;6.92;100.00
9460;BME280;4768;42.664;23.240;2023-04-07T11:19:03;168736.69;;;6.83;100.00
9460;BME280;4768;42.664;23.240;2023-04-07T11:21:30;168752.63;;;6.89;100.00
9460;BME280;4768;42.664;23.240;2023-04-07T11:23:58;168726.03;;;6.79;100.00
9460;BME280;4768;42.664;23.240;2023-04-07T11:26:24;168780.53;;;6.99;100.00
9460;BME280;4768;42.664;23.240;2023-04-07T11:28:52;168819.09;;;7.14;100.00
9460;BME280;4768;42.664;23.240;2023-04-07T11:31:22;168799.16;;;7.06;100.00
9460;BME280;4768;42.664;23.240;2023-04-07T11:33:51;168856.31;;;7.27;100.00
9460;BME280;4768;42.664;23.240;2023-04-07T11:36:25;168884.22;;;7.38;100.00
9460;BME280;4768;42.664;23.240;2023-04-07T11:38:52;168839.03;;;7.21;100.00
9460;BME280;4768;42.664;23.240;2023-04-07T11:41:21;168736.69;;;6.83;100.00
9460;BME280;4768;42.664;23.240;2023-04-07T11:43:48;168832.38;;;7.19;100.00
9460;BME280;4768;42.664;23.240;2023-04-07T11:46:17;168763.28;;;6.93;100.00
9460;BME280;4768;42.664;23.240;2023-04-07T11:48:44;168824.41;;;7.16;100.00
9460;BME280;4768;42.664;23.240;2023-04-07T11:51:15;168882.91;;;7.37;100.00
9460;BME280;4768;42.664;23.240;2023-04-07T11:53:42;168844.34;;;7.23;100.00
9460;BME280;4768;42.664;23.240;2023-04-07T11:56:14;168731.38;;;6.81;100.00
9460;BME280;4768;42.664;23.240;2023-04-07T11:58:47;168566.59;;;6.20;100.00
9460;BME280;4768;42.664;23.240;2023-04-07T12:01:14;168538.69;;;6.09;100.00
9460;BME280;4768;42.664;23.240;2023-04-07T12:03:55;168615.78;;;6.38;100.00
9460;BME280;4768;42.664;23.240;2023-04-07T12:06:26;168587.81;;;6.27;100.00
9460;BME280;4768;42.664;23.240;2023-04-07T12:08:55;168518.75;;;6.02;100.00
9460;BME280;4768;42.664;23.240;2023-04-07T12:11:21;168579.84;;;6.24;100.00
9460;BME280;4768;42.664;23.240;2023-04-07T12:13:51;168618.41;;;6.39;100.00
9460;BME280;4768;42.664;23.240;2023-04-07T12:16:17;168635.69;;;6.45;100.00
9460;BME280;4768;42.664;23.240;2023-04-07T12:18:44;168651.66;;;6.51;100.00
9460;BME280;4768;42.664;23.240;2023-04-07T12:21:11;168683.53;;;6.63;100.00
9460;BME280;4768;42.664;23.240;2023-04-07T12:23:38;168716.75;;;6.75;100.00
9460;BME280;4768;42.664;23.240;2023-04-07T12:26:05;168672.88;;;6.59;100.00
9460;BME280;4768;42.664;23.240;2023-04-07T12:28:32;168590.50;;;6.28;100.00
9460;BME280;4768;42.664;23.240;2023-04-07T12:31:00;168736.69;;;6.83;100.00
9460;BME280;4768;42.664;23.240;2023-04-07T12:33:27;168740.66;;;6.84;100.00
9460;BME280;4768;42.664;23.240;2023-04-07T12:35:53;168554.63;;;6.15;100.00
9460;BME280;4768;42.664;23.240;2023-04-07T12:38:20;168631.72;;;6.44;100.00
9460;BME280;4768;42.664;23.240;2023-04-07T12:40:47;168695.50;;;6.68;100.00
9460;BME280;4768;42.664;23.240;2023-04-07T12:43:13;168602.44;;;6.33;100.00
9460;BME280;4768;42.664;23.240;2023-04-07T12:45:40;168667.59;;;6.57;100.00
9460;BME280;4768;42.664;23.240;2023-04-07T12:48:08;168760.59;;;6.92;100.00
9460;BME280;4768;42.664;23.240;2023-04-07T12:50:35;168619.75;;;6.39;100.00
9460;BME280;4768;42.664;23.240;2023-04-07T12:53:02;168679.56;;;6.62;100.00
9460;BME280;4768;42.664;23.240;2023-04-07T12:55:29;168755.28;;;6.90;100.00
9460;BME280;4768;42.664;23.240;2023-04-07T12:57:58;168825.75;;;7.16;100.00
9460;BME280;4768;42.664;23.240;2023-04-07T13:00:25;168737.97;;;6.83;100.00
9460;BME280;4768;42.664;23.240;2023-04-07T13:02:51;168799.16;;;7.06;100.00
9460;BME280;4768;42.664;23.240;2023-04-07T13:05:19;168906.84;;;7.46;100.00
9460;BME280;4768;42.664;23.240;2023-04-07T13:07:46;168868.28;;;7.32;100.00
9460;BME280;4768;42.664;23.240;2023-04-07T13:10:13;168727.38;;;6.79;100.00